createdAt,value
2019-03-16T00:00:54.484Z,75.56
2019-03-16T00:03:28.512Z,75.35
2019-03-16T00:06:00.811Z,75.53
2019-03-16T00:08:33.749Z,75.43
2019-03-16T00:11:05.523Z,75.66
2019-03-16T00:13:42.656Z,75.71
2019-03-16T00:16:13.169Z,75.29
2019-03-16T00:18:44.349Z,75.16
2019-03-16T00:21:17.513Z,75.32
2019-03-16T00:23:47.474Z,75.24
2019-03-16T00:26:18.522Z,75.53
2019-03-16T00:28:48.517Z,75.47
2019-03-16T00:31:20.637Z,75.36
2019-03-16T00:33:50.335Z,75.26
2019-03-16T00:36:19.956Z,74.99
2019-03-16T00:38:51.313Z,75.25
2019-03-16T00:41:21.117Z,75.16
2019-03-16T00:43:50.877Z,75.03
2019-03-16T00:46:21.431Z,74.89
2019-03-16T00:48:51.449Z,74.91
2019-03-16T00:51:24.572Z,74.57
2019-03-16T00:53:54.883Z,74.35
2019-03-16T00:56:25.054Z,74.29
2019-03-16T00:58:54.657Z,74.33
2019-03-16T01:01:24.223Z,74.08
2019-03-16T01:03:54.436Z,74.00
2019-03-16T01:06:24.409Z,73.90
2019-03-16T01:08:53.977Z,73.79
2019-03-16T01:11:24.518Z,74.11
2019-03-16T01:13:54.007Z,74.22
2019-03-16T01:16:23.536Z,74.07
2019-03-16T01:18:53.122Z,74.01
2019-03-16T01:21:22.630Z,74.35
2019-03-16T01:23:53.375Z,74.17
2019-03-16T01:26:23.435Z,73.97
2019-03-16T01:28:52.945Z,73.52
2019-03-16T01:31:22.482Z,73.56
2019-03-16T01:33:51.947Z,73.93
2019-03-16T01:36:27.129Z,73.64
2019-03-16T01:38:56.737Z,73.49
2019-03-16T01:41:26.221Z,73.70
2019-03-16T01:43:56.525Z,73.25
2019-03-16T01:46:26.566Z,73.44
2019-03-16T01:48:55.987Z,73.61
2019-03-16T01:51:25.646Z,73.39
2019-03-16T01:53:55.548Z,73.25
2019-03-16T01:56:25.092Z,73.51
2019-03-16T01:58:54.692Z,73.58
2019-03-16T02:01:24.243Z,73.77
2019-03-16T02:03:53.705Z,73.68
2019-03-16T02:06:23.268Z,73.41
2019-03-16T02:08:54.128Z,73.48
2019-03-16T02:11:23.645Z,73.44
2019-03-16T02:13:53.060Z,73.71
2019-03-16T02:16:22.457Z,73.63
2019-03-16T02:18:52.292Z,73.75
2019-03-16T02:21:21.775Z,73.96
2019-03-16T02:23:51.566Z,73.51
2019-03-16T02:26:21.030Z,73.61
2019-03-16T02:28:50.538Z,73.98
2019-03-16T02:31:19.949Z,74.00
2019-03-16T02:33:51.385Z,74.10
2019-03-16T02:36:20.912Z,74.18
2019-03-16T02:38:50.463Z,74.01
2019-03-16T02:41:19.967Z,74.07
2019-03-16T02:43:49.579Z,74.18
2019-03-16T02:46:19.011Z,73.98
2019-03-16T02:48:48.480Z,74.16
2019-03-16T02:51:17.924Z,74.12
2019-03-16T02:53:47.500Z,74.29
2019-03-16T02:56:16.879Z,74.28
2019-03-16T02:58:47.272Z,73.91
2019-03-16T03:01:16.761Z,73.86
2019-03-16T03:03:46.432Z,74.05
2019-03-16T03:06:18.950Z,74.19
2019-03-16T03:08:48.680Z,74.87
2019-03-16T03:11:18.232Z,74.67
2019-03-16T03:13:47.799Z,74.95
2019-03-16T03:16:17.288Z,75.38
2019-03-16T03:18:50.295Z,75.92
2019-03-16T03:21:19.874Z,75.62
2019-03-16T03:23:49.485Z,76.64
2019-03-16T03:26:18.990Z,76.77
2019-03-16T03:28:48.482Z,76.28
2019-03-16T03:31:18.003Z,75.61
2019-03-16T03:34:00.251Z,75.39
2019-03-16T03:36:19.315Z,75.70
2019-03-16T03:38:48.729Z,79.44
2019-03-16T03:41:18.228Z,81.48
2019-03-16T03:43:47.696Z,82.17
2019-03-16T03:46:17.213Z,85.97
2019-03-16T03:48:47.075Z,85.26
2019-03-16T03:51:16.601Z,86.89
2019-03-16T03:53:46.055Z,89.26
2019-03-16T03:56:15.788Z,88.46
2019-03-16T03:58:45.280Z,89.44
2019-03-16T04:01:14.819Z,89.14
2019-03-16T04:03:44.617Z,90.25
2019-03-16T04:06:14.085Z,89.51
2019-03-16T04:08:43.508Z,88.65
2019-03-16T04:11:13.564Z,88.00
2019-03-16T04:13:43.034Z,87.11
2019-03-16T04:16:12.694Z,86.50
2019-03-16T04:18:42.198Z,86.08
2019-03-16T04:21:12.460Z,86.06
2019-03-16T04:23:42.318Z,87.07
2019-03-16T04:26:11.739Z,88.24
2019-03-16T04:28:41.129Z,89.07
2019-03-16T04:31:10.626Z,89.67
2019-03-16T04:33:40.173Z,90.26
2019-03-16T04:36:10.083Z,92.02
2019-03-16T04:38:39.578Z,93.42
2019-03-16T04:41:09.186Z,93.92
2019-03-16T04:43:41.891Z,93.96
2019-03-16T04:46:14.290Z,92.46
2019-03-16T04:48:43.185Z,93.13
2019-03-16T04:51:13.069Z,93.34
2019-03-16T04:53:42.608Z,94.47
2019-03-16T04:56:12.072Z,94.36
2019-03-16T04:58:42.083Z,94.49
2019-03-16T05:01:11.771Z,93.69
2019-03-16T05:03:41.310Z,94.27
2019-03-16T05:06:11.336Z,94.91
2019-03-16T05:08:40.898Z,95.30
2019-03-16T05:11:10.355Z,94.60
2019-03-16T05:13:40.511Z,94.18
2019-03-16T05:16:10.184Z,94.16
2019-03-16T05:18:40.410Z,93.59
2019-03-16T05:21:10.030Z,93.21
2019-03-16T05:23:39.530Z,93.01
2019-03-16T05:26:09.062Z,92.49
2019-03-16T05:28:39.022Z,91.70
2019-03-16T05:31:11.441Z,90.59
2019-03-16T05:33:43.438Z,89.83
2019-03-16T05:36:13.589Z,88.58
2019-03-16T05:38:43.134Z,87.40
2019-03-16T05:41:12.684Z,86.95
2019-03-16T05:43:46.531Z,86.19
2019-03-16T05:46:18.111Z,84.95
2019-03-16T05:48:47.625Z,84.53
2019-03-16T05:51:17.190Z,83.68
2019-03-16T05:53:48.449Z,83.48
2019-03-16T05:56:17.838Z,82.81
2019-03-16T05:58:49.919Z,82.64
2019-03-16T06:01:21.962Z,82.41
2019-03-16T06:03:51.940Z,82.32
2019-03-16T06:06:21.350Z,82.31
2019-03-16T06:08:50.838Z,81.97
2019-03-16T06:11:20.349Z,82.19
2019-03-16T06:13:54.063Z,82.14
2019-03-16T06:16:23.662Z,82.25
2019-03-16T06:18:56.833Z,82.03
2019-03-16T06:21:26.720Z,82.17
2019-03-16T06:23:56.299Z,81.93
2019-03-16T06:26:25.913Z,82.00
2019-03-16T06:28:56.674Z,81.33
2019-03-16T06:31:26.213Z,81.29
2019-03-16T06:33:55.626Z,80.76
2019-03-16T06:36:26.305Z,80.54
2019-03-16T06:38:56.708Z,80.69
2019-03-16T06:41:26.493Z,80.51
2019-03-16T06:43:59.321Z,79.76
2019-03-16T06:46:28.971Z,79.54
2019-03-16T06:48:58.917Z,79.75
2019-03-16T06:51:28.639Z,80.09
2019-03-16T06:53:59.913Z,79.92
2019-03-16T06:56:31.161Z,79.75
2019-03-16T06:59:04.333Z,79.80
2019-03-16T07:01:36.192Z,79.49
2019-03-16T07:04:06.844Z,79.31
2019-03-16T07:06:36.516Z,79.46
2019-03-16T07:09:10.783Z,79.10
2019-03-16T07:11:40.285Z,78.92
2019-03-16T07:14:09.989Z,78.50
2019-03-16T07:16:39.554Z,78.25
2019-03-16T07:19:09.343Z,78.04
2019-03-16T07:21:39.200Z,77.93
2019-03-16T07:24:09.225Z,78.01
2019-03-16T07:26:38.755Z,77.77
2019-03-16T07:29:09.705Z,77.28
2019-03-16T07:31:39.609Z,76.82
2019-03-16T07:34:13.931Z,76.08
2019-03-16T07:36:43.551Z,76.82
2019-03-16T07:39:13.619Z,76.87
2019-03-16T07:41:43.077Z,77.20
2019-03-16T07:44:13.109Z,77.76
2019-03-16T07:46:42.581Z,78.17
2019-03-16T07:49:18.035Z,78.28
2019-03-16T07:51:53.582Z,78.11
2019-03-16T07:54:23.250Z,77.77
2019-03-16T07:56:53.417Z,77.27
2019-03-16T07:59:26.363Z,77.01
2019-03-16T08:01:55.953Z,76.74
2019-03-16T08:04:25.423Z,76.15
2019-03-16T08:06:55.056Z,76.20
2019-03-16T08:09:25.334Z,75.71
2019-03-16T08:11:55.341Z,75.46
2019-03-16T08:14:25.090Z,74.78
2019-03-16T08:16:55.706Z,74.69
2019-03-16T08:19:25.622Z,74.70
2019-03-16T08:21:55.435Z,73.97
2019-03-16T08:24:25.107Z,73.53
2019-03-16T08:26:54.560Z,73.14
2019-03-16T08:29:24.195Z,72.89
2019-03-16T08:31:54.312Z,72.71
2019-03-16T08:34:24.083Z,73.03
2019-03-16T08:36:53.757Z,73.44
2019-03-16T08:39:23.445Z,73.67
2019-03-16T08:41:53.191Z,74.17
2019-03-16T08:44:23.061Z,74.66
2019-03-16T08:46:53.006Z,75.54
2019-03-16T08:49:22.675Z,76.51
2019-03-16T08:51:52.313Z,76.18
2019-03-16T08:54:21.831Z,75.99
2019-03-16T08:56:52.388Z,75.06
2019-03-16T08:59:24.365Z,74.62
2019-03-16T09:01:53.550Z,74.56
2019-03-16T09:04:23.540Z,74.50
2019-03-16T09:06:54.358Z,73.86
2019-03-16T09:09:25.426Z,74.24
2019-03-16T09:11:58.071Z,73.87
2019-03-16T09:14:26.412Z,73.62
2019-03-16T09:16:57.133Z,73.05
2019-03-16T09:19:26.767Z,72.97
2019-03-16T09:21:56.658Z,72.51
2019-03-16T09:24:26.182Z,72.27
2019-03-16T09:26:55.903Z,72.37
2019-03-16T09:29:25.598Z,72.11
2019-03-16T09:31:55.202Z,72.03
2019-03-16T09:34:25.545Z,72.20
2019-03-16T09:36:55.563Z,72.29
2019-03-16T09:39:27.866Z,72.31
2019-03-16T09:41:58.155Z,72.07
2019-03-16T09:44:27.890Z,72.18
2019-03-16T09:47:05.259Z,72.44
2019-03-16T09:49:35.949Z,72.47
2019-03-16T09:52:11.628Z,73.00
2019-03-16T09:54:49.117Z,73.43
2019-03-16T09:57:19.688Z,74.36
2019-03-16T09:59:51.215Z,75.19
2019-03-16T10:02:21.191Z,75.62
2019-03-16T10:04:53.358Z,76.62
2019-03-16T10:07:27.258Z,76.48
2019-03-16T10:09:57.338Z,77.15
2019-03-16T10:12:30.234Z,77.91
2019-03-16T10:15:03.506Z,78.00
2019-03-16T10:17:33.583Z,77.44
2019-03-16T10:20:11.444Z,77.70
2019-03-16T10:22:41.813Z,77.63
2019-03-16T10:25:12.266Z,77.33
2019-03-16T10:27:42.690Z,77.37
2019-03-16T10:30:14.944Z,77.36
2019-03-16T10:32:46.968Z,77.60
2019-03-16T10:35:19.053Z,77.35
2019-03-16T10:37:48.788Z,77.85
2019-03-16T10:40:23.331Z,78.20
2019-03-16T10:42:55.399Z,77.98
2019-03-16T10:45:25.369Z,78.48
2019-03-16T10:48:03.267Z,78.59
2019-03-16T10:50:33.554Z,78.19
2019-03-16T10:53:09.276Z,79.59
2019-03-16T10:55:40.496Z,78.71
2019-03-16T10:58:18.523Z,78.80
2019-03-16T11:00:51.087Z,78.06
2019-03-16T11:03:20.849Z,77.62
2019-03-16T11:05:55.017Z,75.27
2019-03-16T11:08:25.647Z,73.29
2019-03-16T11:10:57.793Z,69.91
2019-03-16T11:13:27.464Z,67.51
2019-03-16T11:15:57.428Z,67.34
2019-03-16T11:18:27.206Z,66.30
2019-03-16T11:20:57.822Z,64.47
2019-03-16T11:23:29.627Z,62.79
2019-03-16T11:25:59.506Z,62.50
2019-03-16T11:28:31.334Z,62.89
2019-03-16T11:31:02.398Z,62.44
2019-03-16T11:33:32.142Z,61.93
2019-03-16T11:36:04.694Z,62.57
2019-03-16T11:38:37.331Z,62.76
2019-03-16T11:41:12.879Z,62.26
2019-03-16T11:43:42.510Z,61.32
2019-03-16T11:46:12.363Z,61.12
2019-03-16T11:48:42.368Z,61.81
2019-03-16T11:51:12.217Z,61.77
2019-03-16T11:53:42.038Z,61.64
2019-03-16T11:56:17.901Z,61.38
2019-03-16T11:58:45.156Z,59.95
2019-03-16T12:01:18.562Z,58.82
2019-03-16T12:03:48.799Z,58.54
2019-03-16T12:06:18.631Z,58.42
2019-03-16T12:08:52.304Z,57.62
2019-03-16T12:11:27.250Z,57.92
2019-03-16T12:13:56.918Z,58.22
2019-03-16T12:16:26.771Z,58.59
2019-03-16T12:18:58.988Z,58.69
2019-03-16T12:21:28.736Z,58.63
2019-03-16T12:24:12.231Z,58.76
2019-03-16T12:26:45.621Z,59.27
2019-03-16T12:29:18.564Z,58.96
2019-03-16T12:31:55.518Z,58.91
2019-03-16T12:34:26.073Z,57.00
2019-03-16T12:36:56.143Z,55.61
2019-03-16T12:39:26.547Z,54.10
2019-03-16T12:41:57.443Z,54.42
2019-03-16T12:44:28.166Z,54.81
2019-03-16T12:46:58.496Z,55.31
2019-03-16T12:49:29.819Z,55.10
2019-03-16T12:51:59.917Z,54.94
2019-03-16T12:54:30.729Z,55.25
2019-03-16T12:57:01.567Z,55.73
2019-03-16T12:59:45.917Z,55.77
2019-03-16T13:02:07.121Z,56.88
2019-03-16T13:04:37.449Z,57.52
2019-03-16T13:07:10.435Z,56.74
2019-03-16T13:09:42.448Z,55.48
2019-03-16T13:12:18.899Z,52.18
2019-03-16T13:14:49.316Z,51.29
2019-03-16T13:17:19.575Z,49.79
2019-03-16T13:19:52.110Z,48.33
2019-03-16T13:22:23.486Z,47.27
2019-03-16T13:24:54.029Z,48.32
2019-03-16T13:27:24.181Z,48.44
2019-03-16T13:29:59.039Z,49.59
2019-03-16T13:32:31.225Z,51.04
2019-03-16T13:35:03.273Z,52.70
2019-03-16T13:37:33.540Z,52.95
2019-03-16T13:40:07.669Z,52.90
2019-03-16T13:42:37.760Z,53.40
2019-03-16T13:45:11.347Z,55.00
2019-03-16T13:47:42.237Z,56.59
2019-03-16T13:50:16.009Z,57.43
2019-03-16T13:52:47.562Z,57.79
2019-03-16T13:55:17.730Z,58.22
2019-03-16T13:57:47.739Z,58.21
2019-03-16T14:00:18.560Z,57.87
2019-03-16T14:02:49.269Z,57.78
2019-03-16T14:05:19.567Z,58.11
2019-03-16T14:07:49.799Z,59.07
2019-03-16T14:10:20.781Z,59.54
2019-03-16T14:12:50.974Z,59.11
2019-03-16T14:15:21.392Z,59.34
2019-03-16T14:17:51.455Z,58.80
2019-03-16T14:20:24.668Z,58.61
2019-03-16T14:22:55.749Z,58.79
2019-03-16T14:25:26.067Z,57.52
2019-03-16T14:27:56.534Z,56.89
2019-03-16T14:30:40.283Z,55.54
2019-03-16T14:32:58.881Z,55.02
2019-03-16T14:35:29.099Z,54.54
2019-03-16T14:38:02.081Z,54.15
2019-03-16T14:40:32.139Z,53.11
2019-03-16T14:43:06.880Z,49.98
2019-03-16T14:45:37.715Z,47.79
2019-03-16T14:48:10.088Z,44.49
2019-03-16T14:50:40.545Z,42.01
2019-03-16T14:53:12.394Z,39.26
2019-03-16T14:55:44.811Z,37.25
2019-03-16T14:58:15.454Z,36.00
2019-03-16T15:00:48.639Z,35.40
2019-03-16T15:03:18.817Z,36.05
2019-03-16T15:05:49.751Z,38.33
2019-03-16T15:08:20.187Z,41.77
2019-03-16T15:10:51.543Z,43.71
2019-03-16T15:13:22.290Z,45.95
2019-03-16T15:15:56.536Z,48.97
2019-03-16T15:18:27.495Z,50.79
2019-03-16T15:20:57.722Z,51.83
2019-03-16T15:23:28.096Z,52.17
2019-03-16T15:26:05.098Z,52.58
2019-03-16T15:28:35.742Z,54.50
2019-03-16T15:31:07.778Z,55.27
2019-03-16T15:33:40.590Z,55.45
2019-03-16T15:36:11.031Z,55.91
2019-03-16T15:38:43.781Z,56.36
2019-03-16T15:41:14.648Z,56.55
2019-03-16T15:43:47.378Z,56.60
2019-03-16T15:46:19.538Z,56.82
2019-03-16T15:48:50.538Z,57.23
2019-03-16T15:51:24.039Z,57.92
2019-03-16T15:53:57.103Z,57.42
2019-03-16T15:56:28.012Z,56.88
2019-03-16T15:59:03.854Z,56.89
2019-03-16T16:01:34.641Z,57.25
2019-03-16T16:04:10.722Z,57.50
2019-03-16T16:06:40.965Z,58.21
2019-03-16T16:09:11.663Z,57.83
2019-03-16T16:11:41.877Z,57.87
2019-03-16T16:14:12.974Z,58.19
2019-03-16T16:16:45.044Z,57.74
2019-03-16T16:19:16.631Z,57.62
2019-03-16T16:21:49.698Z,56.67
2019-03-16T16:24:23.955Z,57.33
2019-03-16T16:26:55.233Z,56.72
2019-03-16T16:29:25.875Z,57.61
2019-03-16T16:31:56.320Z,57.26
2019-03-16T16:34:27.688Z,57.00
2019-03-16T16:37:00.174Z,57.25
2019-03-16T16:39:32.943Z,57.19
2019-03-16T16:42:07.045Z,57.29
2019-03-16T16:44:41.030Z,57.14
2019-03-16T16:47:13.277Z,57.09
2019-03-16T16:49:44.017Z,56.66
2019-03-16T16:52:15.087Z,56.74
2019-03-16T16:54:45.689Z,56.59
2019-03-16T16:57:31.802Z,56.33
2019-03-16T17:00:03.633Z,56.35
2019-03-16T17:02:34.335Z,55.69
2019-03-16T17:05:04.778Z,56.21
2019-03-16T17:07:38.392Z,56.44
2019-03-16T17:10:10.249Z,55.83
2019-03-16T17:12:40.486Z,55.05
2019-03-16T17:15:12.068Z,56.18
2019-03-16T17:17:44.298Z,56.03
2019-03-16T17:20:14.726Z,56.44
2019-03-16T17:22:45.040Z,56.35
2019-03-16T17:25:16.107Z,56.85
2019-03-16T17:27:46.397Z,56.27
2019-03-16T17:30:20.094Z,56.41
2019-03-16T17:32:51.628Z,56.04
2019-03-16T17:35:23.085Z,57.50
2019-03-16T17:37:53.700Z,57.95
2019-03-16T17:40:25.656Z,57.58
2019-03-16T17:42:59.629Z,57.67
2019-03-16T17:45:30.595Z,57.74
2019-03-16T17:48:01.178Z,57.44
2019-03-16T17:50:37.811Z,57.36
2019-03-16T17:53:11.745Z,56.77
2019-03-16T17:55:50.439Z,56.77
2019-03-16T17:58:21.880Z,56.42
2019-03-16T18:00:55.290Z,56.79
2019-03-16T18:03:25.823Z,56.96
2019-03-16T18:05:58.518Z,56.58
2019-03-16T18:08:29.562Z,57.69
2019-03-16T18:11:01.104Z,57.45
2019-03-16T18:13:32.584Z,58.07
2019-03-16T18:16:05.987Z,58.66
2019-03-16T18:18:37.708Z,58.14
2019-03-16T18:21:10.771Z,58.26
2019-03-16T18:23:41.209Z,57.51
2019-03-16T18:26:13.199Z,58.33
2019-03-16T18:28:44.166Z,58.66
2019-03-16T18:31:14.377Z,58.09
2019-03-16T18:33:46.647Z,58.41
2019-03-16T18:36:16.973Z,58.70
2019-03-16T18:38:49.845Z,58.72
2019-03-16T18:41:21.218Z,58.48
2019-03-16T18:43:53.873Z,58.51
2019-03-16T18:46:24.308Z,59.74
2019-03-16T18:49:01.589Z,59.08
2019-03-16T18:53:55.822Z,59.11
2019-03-16T18:56:26.472Z,60.56
2019-03-16T18:58:56.902Z,60.57
2019-03-16T19:01:27.609Z,60.87
2019-03-16T19:03:59.628Z,60.79
2019-03-16T19:06:41.986Z,60.77
2019-03-16T19:09:13.979Z,61.02
2019-03-16T19:11:51.004Z,61.04
2019-03-16T19:14:26.828Z,60.31
2019-03-16T19:17:01.067Z,60.66
2019-03-16T19:19:33.169Z,60.04
2019-03-16T19:22:07.128Z,60.16
2019-03-16T19:24:37.621Z,60.00
2019-03-16T19:27:08.154Z,59.41
2019-03-16T19:29:41.557Z,58.65
2019-03-16T19:32:17.401Z,59.62
2019-03-16T19:34:49.914Z,59.26
2019-03-16T19:37:23.422Z,60.43
2019-03-16T19:39:53.934Z,59.47
2019-03-16T19:42:28.987Z,58.80
2019-03-16T19:44:59.617Z,58.79
2019-03-16T19:47:30.040Z,58.86
2019-03-16T19:50:03.849Z,59.47
2019-03-16T19:52:37.849Z,60.25
2019-03-16T19:55:10.482Z,60.36
2019-03-16T19:57:43.747Z,60.52
2019-03-16T20:00:15.398Z,59.97
2019-03-16T20:02:50.669Z,60.05
2019-03-16T20:05:23.871Z,60.47
2019-03-16T20:07:54.237Z,60.01
2019-03-16T20:10:24.532Z,60.26
2019-03-16T20:12:55.453Z,61.18
2019-03-16T20:15:26.233Z,60.27
2019-03-16T20:17:56.610Z,60.84
2019-03-16T20:20:27.891Z,61.26
2019-03-16T20:22:58.278Z,61.38
2019-03-16T20:25:29.495Z,61.42
2019-03-16T20:27:59.899Z,60.88
2019-03-16T20:30:30.522Z,60.43
2019-03-16T20:33:04.130Z,61.00
2019-03-16T20:35:36.815Z,60.46
2019-03-16T20:38:10.216Z,60.57
2019-03-16T20:40:41.466Z,60.53
2019-03-16T20:43:13.094Z,61.30
2019-03-16T20:45:48.168Z,60.63
2019-03-16T20:48:19.464Z,60.92
2019-03-16T20:50:49.987Z,60.51
2019-03-16T20:53:20.687Z,61.32
2019-03-16T20:55:50.927Z,61.95
2019-03-16T20:58:22.238Z,62.71
2019-03-16T21:00:52.786Z,61.68
2019-03-16T21:03:23.204Z,61.78
2019-03-16T21:05:54.068Z,61.09
2019-03-16T21:08:24.194Z,61.75
2019-03-16T21:10:54.623Z,62.35
2019-03-16T21:13:25.030Z,62.02
2019-03-16T21:15:55.249Z,61.56
2019-03-16T21:18:25.543Z,62.07
2019-03-16T21:20:55.683Z,62.29
2019-03-16T21:23:26.200Z,63.10
2019-03-16T21:25:56.702Z,62.35
2019-03-16T21:28:26.841Z,63.60
2019-03-16T21:30:57.134Z,62.90
2019-03-16T21:33:29.683Z,62.88
2019-03-16T21:35:59.672Z,62.14
2019-03-16T21:38:29.917Z,62.83
2019-03-16T21:41:02.579Z,63.72
2019-03-16T21:43:33.998Z,63.33
2019-03-16T21:46:07.313Z,63.97
2019-03-16T21:48:37.714Z,63.31
2019-03-16T21:51:08.388Z,63.90
2019-03-16T21:53:38.524Z,64.17
2019-03-16T21:56:08.869Z,63.75
2019-03-16T21:58:39.062Z,63.72
2019-03-16T22:01:09.204Z,63.97
2019-03-16T22:03:41.920Z,65.02
2019-03-16T22:06:12.859Z,64.14
2019-03-16T22:08:42.969Z,63.45
2019-03-16T22:11:13.046Z,63.70
2019-03-16T22:13:42.619Z,64.02
2019-03-16T22:16:14.162Z,63.57
2019-03-16T22:18:44.209Z,63.50
2019-03-16T22:21:17.305Z,63.47
2019-03-16T22:23:48.199Z,63.96
2019-03-16T22:26:17.957Z,63.50
2019-03-16T22:28:48.258Z,64.17
2019-03-16T22:31:18.183Z,63.92
2019-03-16T22:33:54.331Z,63.56
2019-03-16T22:36:19.678Z,64.23
2019-03-16T22:38:53.149Z,62.75
2019-03-16T22:41:26.781Z,62.86
2019-03-16T22:44:00.756Z,62.85
2019-03-16T22:46:30.042Z,63.08
2019-03-16T22:48:59.607Z,62.99
2019-03-16T22:51:29.319Z,62.50
2019-03-16T22:54:02.912Z,62.21
2019-03-16T22:56:32.700Z,62.12
2019-03-16T22:59:03.020Z,61.22
2019-03-16T23:01:35.896Z,61.34
2019-03-16T23:04:08.305Z,60.97
2019-03-16T23:06:38.254Z,60.81
2019-03-16T23:09:09.497Z,60.21
2019-03-16T23:11:43.667Z,60.09
2019-03-16T23:14:15.750Z,60.81
2019-03-16T23:16:51.135Z,60.24
2019-03-16T23:19:21.442Z,60.57
2019-03-16T23:21:55.377Z,60.28
2019-03-16T23:24:25.642Z,60.25
2019-03-16T23:26:56.720Z,60.37
2019-03-16T23:29:26.161Z,60.18
2019-03-16T23:31:55.768Z,59.84
2019-03-16T23:34:25.391Z,59.59
2019-03-16T23:36:54.900Z,58.99
2019-03-16T23:39:24.811Z,60.03
2019-03-16T23:41:56.875Z,59.94
2019-03-16T23:44:27.386Z,59.27
2019-03-16T23:46:58.201Z,59.53
2019-03-16T23:49:27.813Z,59.74
2019-03-16T23:51:57.552Z,59.38
2019-03-16T23:54:27.261Z,59.39
2019-03-16T23:56:58.804Z,58.97
2019-03-16T23:59:28.325Z,58.96
